createdAt,value
2023-01-09T00:00:09.016Z,95.85
2023-01-09T00:02:57.364Z,95.88
2023-01-09T00:05:26.228Z,96.14
2023-01-09T00:07:54.659Z,96.74
2023-01-09T00:10:23.101Z,96.90
2023-01-09T00:12:51.700Z,97.39
2023-01-09T00:15:20.286Z,97.01
2023-01-09T00:17:49.199Z,96.79
2023-01-09T00:20:17.413Z,97.02
2023-01-09T00:22:46.155Z,97.01
2023-01-09T00:25:14.504Z,97.08
2023-01-09T00:27:42.806Z,97.03
2023-01-09T00:30:12.863Z,96.66
2023-01-09T00:32:41.433Z,96.85
2023-01-09T00:35:15.244Z,97.24
2023-01-09T00:37:44.012Z,97.05
2023-01-09T00:40:15.506Z,96.93
2023-01-09T00:42:46.043Z,96.34
2023-01-09T00:45:19.359Z,96.81
2023-01-09T00:47:49.988Z,97.05
2023-01-09T00:50:22.957Z,97.40
2023-01-09T00:52:56.055Z,96.98
2023-01-09T00:55:24.537Z,97.20
2023-01-09T00:57:53.738Z,97.14
2023-01-09T01:00:22.283Z,97.06
2023-01-09T01:02:50.736Z,97.09
2023-01-09T01:05:37.448Z,97.33
2023-01-09T01:08:12.015Z,97.66
2023-01-09T01:10:41.143Z,97.30
2023-01-09T01:13:10.605Z,97.21
2023-01-09T01:15:40.959Z,98.01
2023-01-09T01:18:10.208Z,97.74
2023-01-09T01:20:40.557Z,97.42
2023-01-09T01:23:09.545Z,97.49
2023-01-09T01:25:38.758Z,97.66
2023-01-09T01:28:07.378Z,98.00
2023-01-09T01:30:39.169Z,97.87
2023-01-09T01:33:08.552Z,98.06
2023-01-09T01:35:37.729Z,98.37
2023-01-09T01:38:06.063Z,98.61
2023-01-09T01:40:34.316Z,98.72
2023-01-09T01:43:02.655Z,98.82
2023-01-09T01:45:32.456Z,99.35
2023-01-09T01:48:05.566Z,99.29
2023-01-09T01:50:38.424Z,99.03
2023-01-09T01:53:13.002Z,98.87
2023-01-09T01:55:48.158Z,98.84
2023-01-09T01:58:16.546Z,99.01
2023-01-09T02:00:47.352Z,98.96
2023-01-09T02:03:19.227Z,99.08
2023-01-09T02:05:48.581Z,98.91
2023-01-09T02:08:17.814Z,99.06
2023-01-09T02:10:47.298Z,98.75
2023-01-09T02:13:16.000Z,98.35
2023-01-09T02:15:58.526Z,98.60
2023-01-09T02:18:46.402Z,98.94
2023-01-09T02:21:24.315Z,98.62
2023-01-09T02:24:42.338Z,98.45
2023-01-09T02:27:33.180Z,98.30
2023-01-09T02:30:30.930Z,98.58
2023-01-09T02:33:31.755Z,98.59
2023-01-09T02:36:11.250Z,98.23
2023-01-09T02:38:53.748Z,98.45
2023-01-09T02:41:29.422Z,98.51
2023-01-09T02:44:17.817Z,98.10
2023-01-09T02:46:47.289Z,97.61
2023-01-09T02:49:17.575Z,97.85
2023-01-09T02:51:52.523Z,98.49
2023-01-09T02:54:34.937Z,98.83
2023-01-09T02:57:20.739Z,98.89
2023-01-09T03:00:03.576Z,98.67
2023-01-09T03:02:36.926Z,98.61
2023-01-09T03:05:09.503Z,99.00
2023-01-09T03:07:43.458Z,99.16
2023-01-09T03:10:19.505Z,99.33
2023-01-09T03:12:52.538Z,99.16
2023-01-09T03:15:25.180Z,98.89
2023-01-09T03:17:54.399Z,99.48
2023-01-09T03:20:26.920Z,99.61
2023-01-09T03:22:57.473Z,99.33
2023-01-09T03:25:27.622Z,99.32
2023-01-09T03:27:58.851Z,99.12
2023-01-09T03:30:28.938Z,99.51
2023-01-09T03:32:57.726Z,99.10
2023-01-09T03:35:26.461Z,99.60
2023-01-09T03:37:54.955Z,100.00
2023-01-09T03:40:23.247Z,100.00
2023-01-09T03:42:51.569Z,99.90
2023-01-09T03:45:20.160Z,99.92
2023-01-09T03:47:48.631Z,99.75
2023-01-09T03:50:17.357Z,99.95
2023-01-09T03:52:45.905Z,99.89
2023-01-09T03:55:15.716Z,99.93
2023-01-09T03:57:44.095Z,99.83
2023-01-09T04:00:14.550Z,99.94
2023-01-09T04:02:43.538Z,100.00
2023-01-09T04:05:11.875Z,99.97
2023-01-09T04:07:40.485Z,99.90
2023-01-09T04:10:11.463Z,99.94
2023-01-09T04:12:40.218Z,100.00
2023-01-09T04:15:10.277Z,100.00
2023-01-09T04:17:38.726Z,100.00
2023-01-09T04:20:09.940Z,100.00
2023-01-09T04:22:38.228Z,100.00
2023-01-09T04:25:07.934Z,99.99
2023-01-09T04:27:36.258Z,100.00
2023-01-09T04:30:06.868Z,100.00
2023-01-09T04:32:35.252Z,100.00
2023-01-09T04:35:05.380Z,100.00
2023-01-09T04:37:35.981Z,100.00
2023-01-09T04:40:07.354Z,100.00
2023-01-09T04:42:35.652Z,100.00
2023-01-09T04:45:04.868Z,100.00
2023-01-09T04:47:33.742Z,100.00
2023-01-09T04:50:02.392Z,100.00
2023-01-09T04:52:30.988Z,100.00
2023-01-09T04:54:59.287Z,100.00
2023-01-09T04:57:27.932Z,100.00
2023-01-09T04:59:56.251Z,100.00
2023-01-09T05:02:24.575Z,100.00
2023-01-09T05:04:53.179Z,100.00
2023-01-09T05:07:22.316Z,100.00
2023-01-09T05:09:50.716Z,100.00
2023-01-09T05:12:19.076Z,100.00
2023-01-09T05:14:47.400Z,99.96
2023-01-09T05:17:15.625Z,99.95
2023-01-09T05:19:44.991Z,99.95
2023-01-09T05:22:13.617Z,99.92
2023-01-09T05:24:42.100Z,99.78
2023-01-09T05:27:10.384Z,99.98
2023-01-09T05:29:38.824Z,100.00
2023-01-09T05:32:07.130Z,99.99
2023-01-09T05:34:35.476Z,99.68
2023-01-09T05:37:04.003Z,99.72
2023-01-09T05:39:32.503Z,99.93
2023-01-09T05:42:00.799Z,99.85
2023-01-09T05:44:29.067Z,99.12
2023-01-09T05:46:57.305Z,99.17
2023-01-09T05:49:25.702Z,99.30
2023-01-09T05:51:53.963Z,99.59
2023-01-09T05:54:22.457Z,99.32
2023-01-09T05:56:50.773Z,99.32
2023-01-09T05:59:19.489Z,99.47
2023-01-09T06:01:48.703Z,99.45
2023-01-09T06:04:17.429Z,98.90
2023-01-09T06:06:45.686Z,98.85
2023-01-09T06:09:14.138Z,98.99
2023-01-09T06:11:42.564Z,98.71
2023-01-09T06:14:10.825Z,98.94
2023-01-09T06:16:39.128Z,99.69
2023-01-09T06:19:07.714Z,100.00
2023-01-09T06:21:36.973Z,100.00
2023-01-09T06:24:07.032Z,100.00
2023-01-09T06:26:35.387Z,100.00
2023-01-09T06:29:03.820Z,100.00
2023-01-09T06:31:32.872Z,100.00
2023-01-09T06:34:01.501Z,100.00
2023-01-09T06:36:29.966Z,100.00
2023-01-09T06:38:58.421Z,100.00
2023-01-09T06:41:27.353Z,100.00
2023-01-09T06:43:55.766Z,100.00
2023-01-09T06:46:24.138Z,100.00
2023-01-09T06:48:52.540Z,99.73
2023-01-09T06:51:20.873Z,99.98
2023-01-09T06:53:49.733Z,99.68
2023-01-09T06:56:19.379Z,99.20
2023-01-09T06:58:48.062Z,99.57
2023-01-09T07:01:16.554Z,99.15
2023-01-09T07:03:44.995Z,99.16
2023-01-09T07:06:13.648Z,99.10
2023-01-09T07:08:41.997Z,99.38
2023-01-09T07:11:10.347Z,99.18
2023-01-09T07:13:38.972Z,99.87
2023-01-09T07:16:08.463Z,99.82
2023-01-09T07:18:36.815Z,99.25
2023-01-09T07:21:06.967Z,99.18
2023-01-09T07:23:35.317Z,99.44
2023-01-09T07:26:04.480Z,99.52
2023-01-09T07:28:32.877Z,99.92
2023-01-09T07:31:01.995Z,99.99
2023-01-09T07:33:30.519Z,99.65
2023-01-09T07:36:01.960Z,99.93
2023-01-09T07:38:31.535Z,99.72
2023-01-09T07:41:00.254Z,99.36
2023-01-09T07:43:28.978Z,98.89
2023-01-09T07:45:57.563Z,98.70
2023-01-09T07:48:26.020Z,98.90
2023-01-09T07:50:55.069Z,98.61
2023-01-09T07:53:23.450Z,99.12
2023-01-09T07:55:51.949Z,98.74
2023-01-09T07:58:20.313Z,98.75
2023-01-09T08:00:49.760Z,98.34
2023-01-09T08:03:18.678Z,98.21
2023-01-09T08:05:47.010Z,98.69
2023-01-09T08:08:15.293Z,98.89
2023-01-09T08:10:43.744Z,99.21
2023-01-09T08:13:12.237Z,98.92
2023-01-09T08:15:41.099Z,99.63
2023-01-09T08:18:09.816Z,99.51
2023-01-09T08:20:38.175Z,98.96
2023-01-09T08:23:06.516Z,99.30
2023-01-09T08:25:34.899Z,99.95
2023-01-09T08:28:05.651Z,99.80
2023-01-09T08:30:33.933Z,100.00
2023-01-09T08:33:02.307Z,100.00
2023-01-09T08:35:31.250Z,100.00
2023-01-09T08:38:00.381Z,100.00
2023-01-09T08:40:28.851Z,100.00
2023-01-09T08:43:15.683Z,100.00
2023-01-09T08:46:14.763Z,100.00
2023-01-09T08:48:43.697Z,100.00
2023-01-09T08:51:12.175Z,100.00
2023-01-09T08:53:41.023Z,100.00
2023-01-09T08:56:09.660Z,100.00
2023-01-09T08:58:38.102Z,100.00
2023-01-09T09:01:08.154Z,100.00
2023-01-09T09:03:36.476Z,100.00
2023-01-09T09:06:08.531Z,100.00
2023-01-09T09:08:37.068Z,100.00
2023-01-09T09:11:05.991Z,100.00
2023-01-09T09:13:34.857Z,100.00
2023-01-09T09:16:10.239Z,100.00
2023-01-09T09:18:38.683Z,100.00
2023-01-09T09:21:07.144Z,100.00
2023-01-09T09:23:35.423Z,100.00
2023-01-09T09:26:04.205Z,100.00
2023-01-09T09:28:32.539Z,100.00
2023-01-09T09:31:00.995Z,100.00
2023-01-09T09:33:29.776Z,100.00
2023-01-09T09:35:59.955Z,100.00
2023-01-09T09:38:28.560Z,100.00
2023-01-09T09:41:37.962Z,100.00
2023-01-09T09:44:38.076Z,100.00
2023-01-09T09:47:18.522Z,100.00
2023-01-09T09:49:59.907Z,100.00
2023-01-09T09:52:37.602Z,100.00
2023-01-09T09:55:17.578Z,100.00
2023-01-09T09:57:48.073Z,100.00
2023-01-09T10:00:21.064Z,100.00
2023-01-09T10:02:55.591Z,100.00
2023-01-09T10:05:27.952Z,100.00
2023-01-09T10:08:14.896Z,100.00
2023-01-09T10:10:50.891Z,100.00
2023-01-09T10:13:42.041Z,100.00
2023-01-09T10:16:28.249Z,100.00
2023-01-09T10:19:08.445Z,100.00
2023-01-09T10:21:42.362Z,100.00
2023-01-09T10:24:32.665Z,100.00
2023-01-09T10:27:09.804Z,100.00
2023-01-09T10:29:48.026Z,100.00
2023-01-09T10:32:35.751Z,100.00
2023-01-09T10:35:22.724Z,100.00
2023-01-09T10:37:55.587Z,100.00
2023-01-09T10:40:29.316Z,100.00
2023-01-09T10:43:02.019Z,100.00
2023-01-09T10:45:32.410Z,100.00
2023-01-09T10:48:05.849Z,100.00
2023-01-09T10:50:39.569Z,100.00
2023-01-09T10:53:19.766Z,100.00
2023-01-09T10:55:51.638Z,100.00
2023-01-09T10:58:21.831Z,100.00
2023-01-09T11:00:51.344Z,100.00
2023-01-09T11:03:22.666Z,100.00
2023-01-09T11:05:53.538Z,100.00
2023-01-09T11:08:27.607Z,100.00
2023-01-09T11:10:58.033Z,100.00
2023-01-09T11:13:29.081Z,100.00
2023-01-09T11:16:07.233Z,100.00
2023-01-09T11:18:40.282Z,100.00
2023-01-09T11:21:30.760Z,100.00
2023-01-09T11:24:26.706Z,100.00
2023-01-09T11:27:22.636Z,100.00
2023-01-09T11:30:21.711Z,100.00
2023-01-09T11:32:50.153Z,100.00
2023-01-09T11:35:26.727Z,100.00
2023-01-09T11:38:14.998Z,100.00
2023-01-09T11:40:49.509Z,100.00
2023-01-09T11:43:34.059Z,100.00
2023-01-09T11:46:05.619Z,100.00
2023-01-09T11:48:39.706Z,100.00
2023-01-09T11:51:20.660Z,100.00
2023-01-09T11:54:06.901Z,100.00
2023-01-09T11:56:37.499Z,100.00
2023-01-09T11:59:12.316Z,100.00
2023-01-09T12:01:58.236Z,100.00
2023-01-09T12:04:33.564Z,100.00
2023-01-09T12:07:54.764Z,100.00
2023-01-09T12:10:42.497Z,100.00
2023-01-09T12:13:21.577Z,100.00
2023-01-09T12:15:58.323Z,100.00
2023-01-09T12:18:44.235Z,100.00
2023-01-09T12:21:25.152Z,100.00
2023-01-09T12:24:10.713Z,100.00
2023-01-09T12:26:48.553Z,100.00
2023-01-09T12:29:39.214Z,100.00
2023-01-09T12:32:23.573Z,100.00
2023-01-09T12:35:02.840Z,100.00
2023-01-09T12:37:58.570Z,100.00
2023-01-09T12:40:41.027Z,100.00
2023-01-09T12:43:19.657Z,100.00
2023-01-09T12:46:00.731Z,100.00
2023-01-09T12:48:50.270Z,100.00
2023-01-09T12:51:30.987Z,100.00
2023-01-09T12:54:05.497Z,100.00
2023-01-09T12:56:38.099Z,100.00
2023-01-09T12:59:17.647Z,100.00
2023-01-09T13:01:48.555Z,100.00
2023-01-09T13:04:23.976Z,100.00
2023-01-09T13:07:00.536Z,100.00
2023-01-09T13:09:38.158Z,100.00
2023-01-09T13:12:11.938Z,100.00
2023-01-09T13:14:53.311Z,100.00
2023-01-09T13:17:27.911Z,100.00
2023-01-09T13:19:56.440Z,100.00
2023-01-09T13:22:28.358Z,100.00
2023-01-09T13:25:32.168Z,100.00
2023-01-09T13:28:04.858Z,100.00
2023-01-09T13:30:50.445Z,100.00
2023-01-09T13:33:23.641Z,100.00
2023-01-09T13:35:52.798Z,100.00
2023-01-09T13:38:23.613Z,100.00
2023-01-09T13:41:20.420Z,100.00
2023-01-09T13:43:57.895Z,100.00
2023-01-09T13:46:38.925Z,100.00
2023-01-09T13:49:28.584Z,100.00
2023-01-09T13:52:00.540Z,100.00
2023-01-09T13:55:20.712Z,100.00
2023-01-09T13:58:26.311Z,100.00
2023-01-09T14:00:58.911Z,100.00
2023-01-09T14:03:32.217Z,100.00
2023-01-09T14:06:19.045Z,100.00
2023-01-09T14:09:04.468Z,100.00
2023-01-09T14:11:33.171Z,100.00
2023-01-09T14:14:06.262Z,100.00
2023-01-09T14:16:37.621Z,100.00
2023-01-09T14:19:20.465Z,100.00
2023-01-09T14:21:53.083Z,100.00
2023-01-09T14:24:26.580Z,100.00
2023-01-09T14:26:57.710Z,100.00
2023-01-09T14:29:42.689Z,100.00
2023-01-09T14:32:43.200Z,100.00
2023-01-09T14:35:17.840Z,100.00
2023-01-09T14:37:55.349Z,100.00
2023-01-09T14:40:23.756Z,100.00
2023-01-09T14:42:57.918Z,100.00
2023-01-09T14:45:27.506Z,100.00
2023-01-09T14:48:00.197Z,100.00
2023-01-09T14:50:31.699Z,100.00
2023-01-09T14:53:06.258Z,100.00
2023-01-09T14:55:43.071Z,100.00
2023-01-09T14:58:18.884Z,100.00
2023-01-09T15:00:50.991Z,100.00
2023-01-09T15:03:21.552Z,100.00
2023-01-09T15:05:52.363Z,100.00
2023-01-09T15:08:24.948Z,100.00
2023-01-09T15:10:56.840Z,100.00
2023-01-09T15:13:31.288Z,100.00
2023-01-09T15:16:02.406Z,100.00
2023-01-09T15:18:41.016Z,100.00
2023-01-09T15:21:19.569Z,100.00
2023-01-09T15:23:48.088Z,100.00
2023-01-09T15:26:25.803Z,100.00
2023-01-09T15:29:01.849Z,100.00
2023-01-09T15:31:30.627Z,100.00
2023-01-09T15:34:02.875Z,100.00
2023-01-09T15:36:31.469Z,100.00
2023-01-09T15:39:00.725Z,100.00
2023-01-09T15:41:49.842Z,100.00
2023-01-09T15:44:29.599Z,100.00
2023-01-09T15:47:00.505Z,100.00
2023-01-09T15:49:29.663Z,100.00
2023-01-09T15:51:58.515Z,100.00
2023-01-09T15:54:29.930Z,100.00
2023-01-09T15:57:34.674Z,100.00
2023-01-09T16:00:31.252Z,100.00
2023-01-09T16:03:10.170Z,100.00
2023-01-09T16:05:43.560Z,100.00
2023-01-09T16:08:28.963Z,100.00
2023-01-09T16:11:04.320Z,100.00
2023-01-09T16:13:42.426Z,100.00
2023-01-09T16:16:12.245Z,100.00
2023-01-09T16:18:51.392Z,100.00
2023-01-09T16:21:31.101Z,100.00
2023-01-09T16:24:02.893Z,100.00
2023-01-09T16:26:31.869Z,100.00
2023-01-09T16:29:27.287Z,100.00
2023-01-09T16:32:03.135Z,100.00
2023-01-09T16:34:33.177Z,100.00
2023-01-09T16:37:02.386Z,100.00
2023-01-09T16:39:31.425Z,100.00
2023-01-09T16:42:18.742Z,100.00
2023-01-09T16:44:47.097Z,100.00
2023-01-09T16:47:15.484Z,100.00
2023-01-09T16:49:43.826Z,100.00
2023-01-09T16:52:17.198Z,100.00
2023-01-09T16:54:46.805Z,100.00
2023-01-09T16:57:18.271Z,100.00
2023-01-09T16:59:47.396Z,100.00
2023-01-09T17:02:19.434Z,100.00
2023-01-09T17:04:47.885Z,100.00
2023-01-09T17:07:18.681Z,100.00
2023-01-09T17:09:47.939Z,100.00
2023-01-09T17:12:20.031Z,100.00
2023-01-09T17:14:49.028Z,100.00
2023-01-09T17:17:18.691Z,100.00
2023-01-09T17:19:47.326Z,100.00
2023-01-09T17:22:15.907Z,100.00
2023-01-09T17:25:02.581Z,100.00
2023-01-09T17:27:52.759Z,100.00
2023-01-09T17:30:21.999Z,100.00
2023-01-09T17:32:51.311Z,100.00
2023-01-09T17:35:19.929Z,100.00
2023-01-09T17:37:48.618Z,100.00
2023-01-09T17:40:21.277Z,100.00
2023-01-09T17:42:48.945Z,100.00
2023-01-09T17:45:17.457Z,100.00
2023-01-09T17:47:45.843Z,100.00
2023-01-09T17:50:19.074Z,100.00
2023-01-09T17:52:47.816Z,100.00
2023-01-09T17:55:16.286Z,100.00
2023-01-09T17:57:44.905Z,100.00
2023-01-09T18:00:24.523Z,100.00
2023-01-09T18:02:53.269Z,100.00
2023-01-09T18:05:22.417Z,100.00
2023-01-09T18:07:51.097Z,100.00
2023-01-09T18:10:22.919Z,100.00
2023-01-09T18:12:53.234Z,100.00
2023-01-09T18:15:23.827Z,100.00
2023-01-09T18:17:52.773Z,100.00
2023-01-09T18:20:21.081Z,100.00
2023-01-09T18:22:49.451Z,100.00
2023-01-09T18:25:18.115Z,100.00
2023-01-09T18:27:46.354Z,100.00
2023-01-09T18:30:15.011Z,100.00
2023-01-09T18:32:43.351Z,100.00
2023-01-09T18:35:12.304Z,100.00
2023-01-09T18:37:40.714Z,100.00
2023-01-09T18:40:11.947Z,100.00
2023-01-09T18:42:41.498Z,100.00
2023-01-09T18:45:10.986Z,100.00
2023-01-09T18:47:40.893Z,100.00
2023-01-09T18:50:12.324Z,100.00
2023-01-09T18:52:40.826Z,100.00
2023-01-09T18:55:10.236Z,100.00
2023-01-09T18:57:54.686Z,100.00
2023-01-09T19:00:23.370Z,100.00
2023-01-09T19:02:54.644Z,100.00
2023-01-09T19:05:25.346Z,100.00
2023-01-09T19:07:53.776Z,100.00
2023-01-09T19:10:22.249Z,100.00
2023-01-09T19:12:50.854Z,100.00
2023-01-09T19:15:19.903Z,100.00
2023-01-09T19:17:49.764Z,100.00
2023-01-09T19:20:18.771Z,100.00
2023-01-09T19:22:47.357Z,100.00
2023-01-09T19:25:16.319Z,100.00
2023-01-09T19:27:48.690Z,100.00
2023-01-09T19:30:18.364Z,100.00
2023-01-09T19:32:46.763Z,100.00
2023-01-09T19:35:16.733Z,100.00
2023-01-09T19:37:45.310Z,100.00
2023-01-09T19:40:14.424Z,100.00
2023-01-09T19:42:42.680Z,100.00
2023-01-09T19:45:11.825Z,100.00
2023-01-09T19:47:40.624Z,100.00
2023-01-09T19:50:11.595Z,100.00
2023-01-09T19:52:42.613Z,100.00
2023-01-09T19:55:13.188Z,100.00
2023-01-09T19:57:42.169Z,100.00
2023-01-09T20:00:13.321Z,100.00
2023-01-09T20:02:41.962Z,100.00
2023-01-09T20:05:10.913Z,100.00
2023-01-09T20:07:39.354Z,100.00
2023-01-09T20:10:10.099Z,100.00
2023-01-09T20:12:38.602Z,100.00
2023-01-09T20:15:14.075Z,100.00
2023-01-09T20:17:43.288Z,100.00
2023-01-09T20:20:12.668Z,100.00
2023-01-09T20:22:41.003Z,100.00
2023-01-09T20:25:10.352Z,100.00
2023-01-09T20:27:39.287Z,100.00
2023-01-09T20:30:11.164Z,100.00
2023-01-09T20:32:39.685Z,100.00
2023-01-09T20:35:09.757Z,100.00
2023-01-09T20:37:39.939Z,100.00
2023-01-09T20:40:11.440Z,100.00
2023-01-09T20:42:39.936Z,100.00
2023-01-09T20:45:09.704Z,100.00
2023-01-09T20:47:38.553Z,100.00
2023-01-09T20:50:09.390Z,100.00
2023-01-09T20:52:38.475Z,100.00
2023-01-09T20:55:08.109Z,100.00
2023-01-09T20:57:36.925Z,100.00
2023-01-09T21:00:07.627Z,100.00
2023-01-09T21:02:36.072Z,100.00
2023-01-09T21:05:07.152Z,100.00
2023-01-09T21:07:38.781Z,100.00
2023-01-09T21:10:09.406Z,100.00
2023-01-09T21:12:38.627Z,100.00
2023-01-09T21:15:14.461Z,100.00
2023-01-09T21:17:43.458Z,100.00
2023-01-09T21:20:15.276Z,100.00
2023-01-09T21:22:43.706Z,100.00
2023-01-09T21:25:16.028Z,100.00
2023-01-09T21:27:45.513Z,100.00
2023-01-09T21:30:14.702Z,100.00
2023-01-09T21:32:43.450Z,100.00
2023-01-09T21:35:12.212Z,100.00
2023-01-09T21:37:41.963Z,100.00
2023-01-09T21:40:16.033Z,100.00
2023-01-09T21:43:03.882Z,100.00
2023-01-09T21:45:51.526Z,100.00
2023-01-09T21:48:20.339Z,100.00
2023-01-09T21:50:49.841Z,100.00
2023-01-09T21:53:18.829Z,100.00
2023-01-09T21:55:47.117Z,100.00
2023-01-09T21:58:16.686Z,100.00
2023-01-09T22:00:45.224Z,100.00
2023-01-09T22:03:18.224Z,100.00
2023-01-09T22:05:47.525Z,100.00
2023-01-09T22:08:16.064Z,100.00
2023-01-09T22:10:45.123Z,100.00
2023-01-09T22:13:17.024Z,100.00
2023-01-09T22:15:46.785Z,100.00
2023-01-09T22:18:15.121Z,100.00
2023-01-09T22:20:45.251Z,100.00
2023-01-09T22:23:14.098Z,100.00
2023-01-09T22:25:42.372Z,100.00
2023-01-09T22:28:10.839Z,100.00
2023-01-09T22:30:41.265Z,100.00
2023-01-09T22:33:10.553Z,100.00
2023-01-09T22:35:40.563Z,100.00
2023-01-09T22:38:10.290Z,100.00
2023-01-09T22:40:39.563Z,100.00
2023-01-09T22:43:07.984Z,100.00
2023-01-09T22:45:36.570Z,100.00
2023-01-09T22:48:06.078Z,100.00
2023-01-09T22:50:34.558Z,100.00
2023-01-09T22:53:03.110Z,100.00
2023-01-09T22:55:31.849Z,100.00
2023-01-09T22:58:00.233Z,100.00
2023-01-09T23:00:28.683Z,100.00
2023-01-09T23:02:57.253Z,100.00
2023-01-09T23:05:25.953Z,100.00
2023-01-09T23:07:54.204Z,100.00
2023-01-09T23:10:22.604Z,100.00
2023-01-09T23:12:50.946Z,100.00
2023-01-09T23:15:19.397Z,100.00
2023-01-09T23:17:47.967Z,100.00
2023-01-09T23:20:16.969Z,100.00
2023-01-09T23:22:45.501Z,100.00
2023-01-09T23:25:15.608Z,100.00
2023-01-09T23:27:44.210Z,100.00
2023-01-09T23:30:14.007Z,100.00
2023-01-09T23:32:43.557Z,100.00
2023-01-09T23:35:12.048Z,100.00
2023-01-09T23:37:40.416Z,100.00
2023-01-09T23:40:11.307Z,100.00
2023-01-09T23:43:06.482Z,100.00
2023-01-09T23:45:35.927Z,100.00
2023-01-09T23:48:06.321Z,100.00
2023-01-09T23:50:35.034Z,100.00
2023-01-09T23:53:03.447Z,100.00
2023-01-09T23:55:32.123Z,100.00
2023-01-09T23:58:00.804Z,100.00
